Time;durP1;ratioP1;P1;durP2;ratioP2;P2;SDS_P1;SDS_P2;PMS_P1;PMS_P2;Temp;Humidity;BMP_temperature;BMP_pressure;BME280_temperature;BME280_humidity;BME280_pressure;Samples;Min_cycle;Max_cycle;Signal;HPM_P1;HPM_P2
2022/12/12 00:00:23;;;;;;;0.20;0.20;;;;;;;3.67;66.63;101161.28;5069863;28;20062;-83
2022/12/12 00:02:50;;;;;;;0.10;0.10;;;;;;;3.64;66.76;101164.75;5062744;28;20025;-85
2022/12/12 00:05:19;;;;;;;0.90;0.90;;;;;;;3.64;66.80;101158.59;5069432;28;20512;-85
2022/12/12 00:07:45;;;;;;;0.10;0.10;;;;;;;3.58;67.11;101161.13;5072850;28;20043;-84
2022/12/12 00:10:12;;;;;;;0.20;0.20;;;;;;;3.59;66.82;101162.91;5066957;28;20421;-84
2022/12/12 00:12:38;;;;;;;0.20;0.20;;;;;;;3.59;66.99;101168.13;5073681;28;20029;-84
2022/12/12 00:15:04;;;;;;;0.10;0.10;;;;;;;3.59;67.10;101163.78;5068947;28;20049;-83
2022/12/12 00:17:30;;;;;;;0.10;0.10;;;;;;;3.62;66.99;101170.81;5061384;28;20098;-83
2022/12/12 00:19:57;;;;;;;0.80;0.80;;;;;;;3.63;67.28;101168.22;5065678;28;20079;-84
2022/12/12 00:22:23;;;;;;;0.10;0.10;;;;;;;3.64;67.02;101171.69;5068571;28;20014;-84
2022/12/12 00:24:49;;;;;;;0.10;0.10;;;;;;;3.63;67.24;101162.09;5064144;28;20050;-83
2022/12/12 00:27:15;;;;;;;0.20;0.20;;;;;;;3.60;67.26;101176.03;5062198;28;20487;-84
2022/12/12 00:29:41;;;;;;;0.20;0.20;;;;;;;3.60;66.82;101169.91;5069191;28;21440;-84
2022/12/12 00:32:07;;;;;;;0.13;0.13;;;;;;;3.56;66.87;101171.59;5066787;28;20042;-83
2022/12/12 00:34:33;;;;;;;0.20;0.20;;;;;;;3.53;67.20;101172.44;5074361;28;20049;-83
2022/12/12 00:37:00;;;;;;;0.30;0.30;;;;;;;3.45;67.15;101171.47;5092082;28;20040;-84
2022/12/12 00:39:26;;;;;;;0.65;0.63;;;;;;;3.43;66.75;101172.28;5080992;28;20040;-84
2022/12/12 00:41:53;;;;;;;1.30;1.30;;;;;;;3.37;67.07;101179.19;5068580;28;20082;-84
2022/12/12 00:44:19;;;;;;;0.47;0.47;;;;;;;3.31;67.00;101167.75;5064174;28;20437;-84
2022/12/12 00:46:45;;;;;;;0.20;0.20;;;;;;;3.30;67.40;101179.06;5076506;28;20490;-84
2022/12/12 00:49:12;;;;;;;0.20;0.20;;;;;;;3.24;67.32;101172.03;5065887;28;20025;-83
2022/12/12 00:51:38;;;;;;;0.10;0.10;;;;;;;3.19;67.32;101164.09;5070734;28;20020;-84
2022/12/12 00:54:04;;;;;;;0.32;0.32;;;;;;;3.15;67.47;101170.13;5077523;28;20093;-83
2022/12/12 00:56:31;;;;;;;0.10;0.10;;;;;;;3.06;67.53;101162.13;5091108;28;20025;-83
2022/12/12 00:58:57;;;;;;;7.97;2.85;;;;;;;2.98;67.37;101163.72;5079863;28;20024;-84
2022/12/12 01:01:27;;;;;;;0.10;0.10;;;;;;;2.89;67.70;101170.59;5070176;28;20036;-84
2022/12/12 01:03:53;;;;;;;0.40;0.40;;;;;;;2.83;67.69;101164.34;5077963;28;20425;-84
2022/12/12 01:06:20;;;;;;;0.20;0.20;;;;;;;2.77;67.79;101174.72;5070683;28;20402;-83
2022/12/12 01:08:46;;;;;;;0.25;0.25;;;;;;;2.68;67.54;101171.09;5060210;28;20026;-82
2022/12/12 01:11:14;;;;;;;0.20;0.20;;;;;;;2.61;67.40;101173.59;5067062;28;20056;-82
2022/12/12 01:13:41;;;;;;;0.10;0.10;;;;;;;2.51;67.72;101178.63;5064100;28;20034;-82
2022/12/12 01:16:07;;;;;;;3.20;0.95;;;;;;;2.40;67.95;101180.19;5067250;28;20032;-81
2022/12/12 01:18:35;;;;;;;0.20;0.20;;;;;;;2.33;67.90;101184.41;5060313;28;20149;-83
2022/12/12 01:21:01;;;;;;;1.88;1.75;;;;;;;2.24;68.25;101182.50;5082204;28;20043;-81
2022/12/12 01:23:28;;;;;;;0.20;0.20;;;;;;;2.18;67.91;101184.09;5089780;28;20009;-80
2022/12/12 01:26:03;;;;;;;0.35;0.35;;;;;;;2.12;68.10;101184.88;5086401;28;20040;-79
2022/12/12 01:28:29;;;;;;;0.20;0.20;;;;;;;2.01;68.03;101192.50;5095807;28;20020;-80
2022/12/12 01:30:55;;;;;;;0.40;0.40;;;;;;;1.94;68.65;101199.31;5092305;28;20028;-82
2022/12/12 01:33:21;;;;;;;0.20;0.20;;;;;;;1.90;68.65;101205.31;5105899;28;20013;-84
2022/12/12 01:35:57;;;;;;;0.10;0.10;;;;;;;1.88;68.55;101201.81;5102650;28;20129;-84
2022/12/12 01:38:23;;;;;;;0.20;0.20;;;;;;;1.78;68.79;101195.50;5093857;28;20047;-84
2022/12/12 01:40:50;;;;;;;0.10;0.10;;;;;;;1.73;69.06;101201.47;5092999;28;20577;-83
2022/12/12 01:43:19;;;;;;;0.10;0.10;;;;;;;1.68;69.14;101208.31;5090419;28;20028;-83
2022/12/12 01:48:54;;;;;;;0.20;0.20;;;;;;;1.60;69.19;101211.63;5080052;28;20383;-83
2022/12/12 01:51:23;;;;;;;5.35;3.05;;;;;;;1.53;69.28;101206.25;5058856;28;20087;-84
2022/12/12 01:53:53;;;;;;;0.40;0.40;;;;;;;1.50;69.56;101214.88;5061488;28;20056;-83
2022/12/12 01:56:21;;;;;;;0.90;0.90;;;;;;;1.45;69.70;101222.59;5061093;28;20025;-84
2022/12/12 01:58:50;;;;;;;0.20;0.20;;;;;;;1.43;69.82;101207.75;5056461;28;20029;-83
2022/12/12 02:01:23;;;;;;;0.70;0.70;;;;;;;1.43;69.59;101208.66;5057578;28;20043;-83
2022/12/12 02:03:49;;;;;;;1.20;1.20;;;;;;;1.36;69.75;101211.06;5068934;28;20032;-83
2022/12/12 02:06:24;;;;;;;0.20;0.20;;;;;;;1.37;69.73;101220.66;5071216;28;20029;-81
2022/12/12 02:08:53;;;;;;;0.20;0.20;;;;;;;1.32;69.80;101225.78;5059601;28;20018;-83
2022/12/12 02:11:20;;;;;;;0.50;0.50;;;;;;;1.27;69.85;101223.06;5059796;28;20052;-81
2022/12/12 02:13:47;;;;;;;0.10;0.10;;;;;;;1.25;70.12;101227.34;5066098;28;20179;-82
2022/12/12 02:16:53;;;;;;;0.20;0.20;;;;;;;1.26;69.78;101221.28;5055247;28;20049;-83
2022/12/12 02:19:59;;;;;;;1.23;1.23;;;;;;;1.23;70.04;101229.03;5046744;28;20041;-82
2022/12/12 02:25:47;;;;;;;0.20;0.20;;;;;;;1.17;70.00;101231.50;5116063;27;1184277;-83
2022/12/12 02:33:51;;;;;;;0.25;0.25;;;;;;;1.03;69.95;101236.38;5122747;27;1244278;-82
2022/12/12 02:39:31;;;;;;;0.20;0.20;;;;;;;1.00;69.89;101235.41;5112700;27;20447;-83
2022/12/12 02:42:07;;;;;;;0.20;0.20;;;;;;;0.96;70.35;101247.53;5109394;28;20042;-83
2022/12/12 02:44:40;;;;;;;0.20;0.20;;;;;;;0.90;70.38;101236.94;5113440;28;20046;-83
2022/12/12 02:47:14;;;;;;;1.67;1.58;;;;;;;0.89;70.08;101243.84;5125015;28;20058;-83
2022/12/12 02:49:55;;;;;;;0.20;0.20;;;;;;;0.85;70.22;101241.09;5125768;28;20062;-83
2022/12/12 02:52:22;;;;;;;0.20;0.20;;;;;;;0.80;70.11;101252.31;5110862;28;20035;-83
2022/12/12 02:54:48;;;;;;;0.10;0.10;;;;;;;0.79;69.92;101241.84;5111465;28;20028;-83
2022/12/12 02:57:19;;;;;;;0.30;0.30;;;;;;;0.80;70.08;101247.09;5111566;28;20028;-83
2022/12/12 02:59:52;;;;;;;0.35;0.35;;;;;;;0.78;70.59;101233.13;5111017;28;20099;-83
2022/12/12 03:08:47;;;;;;;0.15;0.15;;;;;;;0.79;70.74;101239.25;5122083;28;20027;-83
2022/12/12 03:11:24;;;;;;;0.35;0.35;;;;;;;0.74;70.04;101240.84;5121899;28;20047;-83
2022/12/12 03:14:08;;;;;;;0.20;0.20;;;;;;;0.76;70.28;101242.66;5100180;28;20102;-83
2022/12/12 03:16:50;;;;;;;0.10;0.10;;;;;;;0.73;70.69;101239.94;5106033;28;20024;-83
2022/12/12 03:22:55;;;;;;;0.32;0.32;;;;;;;0.70;70.17;101244.19;5112080;27;1201464;-81
2022/12/12 03:30:56;;;;;;;0.20;0.20;;;;;;;0.63;70.96;101241.41;5080147;28;20931;-83
2022/12/12 03:33:33;;;;;;;0.20;0.20;;;;;;;0.62;70.45;101239.69;5094732;28;20059;-83
2022/12/12 03:36:21;;;;;;;0.20;0.20;;;;;;;0.58;70.57;101240.41;5099814;28;20025;-83
2022/12/12 03:38:56;;;;;;;2.55;2.35;;;;;;;0.56;70.37;101241.22;5101467;28;20059;-82
2022/12/12 03:41:28;;;;;;;0.28;0.28;;;;;;;0.53;70.02;101242.03;5108882;28;20028;-82
2022/12/12 03:44:04;;;;;;;0.38;0.38;;;;;;;0.51;70.15;101243.69;5089693;28;20025;-84
2022/12/12 03:49:41;;;;;;;0.35;0.35;;;;;;;0.47;70.37;101247.06;5116502;27;20114;-82
2022/12/12 03:52:21;;;;;;;0.20;0.20;;;;;;;0.42;70.22;101246.06;5097012;28;20054;-82
2022/12/12 03:57:50;;;;;;;0.20;0.20;;;;;;;0.37;70.44;101245.06;5146154;27;20380;-81
2022/12/12 04:00:19;;;;;;;0.10;0.10;;;;;;;0.33;70.63;101241.47;5122000;28;20044;-82
2022/12/12 04:03:14;;;;;;;1.80;1.75;;;;;;;0.32;70.39;101242.31;5125620;28;20043;-82
2022/12/12 04:12:57;;;;;;;0.20;0.20;;;;;;;0.20;70.39;101253.28;5139873;27;20027;-82
2022/12/12 04:14:40;;;;;;;0.20;0.20;;;;;;;0.20;70.61;101257.59;5139344;27;20114;-81
2022/12/12 04:17:12;;;;;;;0.30;0.30;;;;;;;0.15;69.95;101265.28;5123210;27;20019;-81
2022/12/12 04:23:16;;;;;;;0.20;0.20;;;;;;;0.18;69.97;101262.75;5124661;27;20046;-81
2022/12/12 04:26:40;;;;;;;0.15;0.15;;;;;;;0.17;70.40;101265.34;5130883;27;20160;-81
2022/12/12 04:29:21;;;;;;;0.20;0.20;;;;;;;0.12;70.67;101260.84;5124768;27;20035;-82
2022/12/12 04:32:03;;;;;;;0.20;0.20;;;;;;;0.12;70.54;101259.97;5125000;27;20032;-81
2022/12/12 04:34:39;;;;;;;0.10;0.10;;;;;;;0.09;70.42;101260.78;5122553;27;20027;-82
2022/12/12 04:37:09;;;;;;;0.55;0.55;;;;;;;0.04;70.12;101269.28;5119843;27;20066;-81
2022/12/12 04:39:38;;;;;;;0.20;0.20;;;;;;;-0.01;70.63;101267.44;5125747;27;20042;-81
2022/12/12 04:42:06;;;;;;;0.20;0.20;;;;;;;-0.04;69.83;101271.66;5124674;27;20065;-83
2022/12/12 04:44:39;;;;;;;0.20;0.20;;;;;;;-0.07;69.74;101272.44;5130820;27;20027;-81
2022/12/12 04:47:09;;;;;;;;;;;;;;;0.00;70.02;101276.13;5138248;27;20008;-82
2022/12/12 04:49:52;;;;;;;0.25;0.25;;;;;;;-0.14;69.67;101273.09;5137896;27;19971;-84
2022/12/12 04:52:36;;;;;;;0.10;0.10;;;;;;;-0.13;69.69;101274.00;5134627;27;20028;-85
2022/12/12 04:55:30;;;;;;;0.20;0.20;;;;;;;-0.15;70.20;101275.66;5141478;27;20028;-83
2022/12/12 04:57:56;;;;;;;6.15;1.85;;;;;;;-0.21;69.88;101272.03;5125132;27;20092;-82
2022/12/12 05:00:29;;;;;;;1.40;1.38;;;;;;;-0.22;69.65;101261.56;5122355;27;20027;-82
2022/12/12 05:06:22;;;;;;;0.20;0.20;;;;;;;-0.30;69.61;101266.53;5115962;27;20401;-81
2022/12/12 05:08:59;;;;;;;7.13;1.85;;;;;;;-0.31;70.31;101266.47;5084163;28;20104;-80
2022/12/12 05:12:01;;;;;;;0.40;0.40;;;;;;;-0.31;69.61;101269.09;5074682;28;20029;-82
2022/12/12 05:14:35;;;;;;;0.20;0.20;;;;;;;-0.38;69.78;101271.50;5084113;28;20029;-82
2022/12/12 05:17:14;;;;;;;0.20;0.20;;;;;;;-0.41;69.68;101268.81;5064370;28;20490;-83
2022/12/12 05:19:48;;;;;;;0.20;0.20;;;;;;;-0.44;69.71;101270.44;5058272;28;20517;-82
2022/12/12 05:22:16;;;;;;;0.20;0.20;;;;;;;-0.50;69.68;101263.28;5060544;28;20056;-82
2022/12/12 05:24:58;;;;;;;0.85;0.85;;;;;;;-0.49;69.63;101272.88;5064736;28;20032;-82
2022/12/12 05:27:50;;;;;;;0.20;0.20;;;;;;;-0.54;69.57;101269.25;5063238;28;20044;-81
2022/12/12 05:30:28;;;;;;;0.10;0.10;;;;;;;-0.57;69.60;101269.16;5047191;28;20063;-82
2022/12/12 05:32:54;;;;;;;1.75;1.40;;;;;;;-0.62;69.83;101271.59;5050538;28;20044;-82
2022/12/12 05:35:28;;;;;;;0.20;0.20;;;;;;;-0.58;70.26;101280.41;5064093;28;20031;-81
2022/12/12 05:38:18;;;;;;;2.08;1.98;;;;;;;-0.58;69.66;101276.06;5057245;28;20422;-82
2022/12/12 05:40:44;;;;;;;0.32;0.32;;;;;;;-0.62;69.53;101279.41;5061475;28;20036;-82
2022/12/12 05:46:55;;;;;;;1.13;1.10;;;;;;;-0.56;70.16;101276.09;4941633;28;20445;-82
2022/12/12 05:49:26;;;;;;;0.20;0.20;;;;;;;-0.60;70.30;101287.25;4957679;28;20410;-82
2022/12/12 05:52:20;;;;;;;0.10;0.10;;;;;;;-0.60;70.25;101287.25;4967816;28;20065;-82
2022/12/12 05:54:48;;;;;;;0.20;0.20;;;;;;;-0.62;70.13;101286.31;4962459;28;20046;-82
2022/12/12 05:57:30;;;;;;;0.20;0.20;;;;;;;-0.61;70.55;101290.69;4976753;28;20060;-82
2022/12/12 06:00:04;;;;;;;0.40;0.40;;;;;;;-0.63;70.55;101293.25;4968337;28;20094;-83
2022/12/12 06:02:34;;;;;;;0.22;0.22;;;;;;;-0.63;70.29;101292.38;4965569;28;20094;-83
2022/12/12 06:05:00;;;;;;;0.20;0.20;;;;;;;-0.65;70.42;101289.69;4963096;28;20051;-82
2022/12/12 06:07:26;;;;;;;0.40;0.40;;;;;;;-0.66;70.58;101283.63;4973424;28;20095;-82
2022/12/12 06:09:54;;;;;;;0.20;0.20;;;;;;;-0.64;70.56;101286.28;4996413;28;20070;-82
2022/12/12 06:12:21;;;;;;;0.20;0.20;;;;;;;-0.66;70.77;101299.25;4967834;28;20061;-82
2022/12/12 06:14:47;;;;;;;0.17;0.17;;;;;;;-0.66;70.39;101298.38;4969169;28;20043;-82
2022/12/12 06:17:13;;;;;;;0.28;0.28;;;;;;;-0.68;70.91;101300.91;4955698;28;20042;-81
2022/12/12 06:19:39;;;;;;;0.30;0.30;;;;;;;-0.70;70.84;101294.78;4968194;28;20091;-80
2022/12/12 06:22:05;;;;;;;0.20;0.20;;;;;;;-0.71;70.62;101300.81;5052473;28;20033;-80
2022/12/12 06:24:31;;;;;;;0.20;0.20;;;;;;;-0.73;70.13;101299.88;5070449;28;20024;-80
2022/12/12 06:26:57;;;;;;;0.20;0.20;;;;;;;-0.74;70.10;101300.69;5070179;28;20037;-80
2022/12/12 06:29:23;;;;;;;0.20;0.20;;;;;;;-0.76;70.21;101306.69;5062286;28;20059;-80
2022/12/12 06:31:50;;;;;;;0.20;0.20;;;;;;;-0.78;70.75;101301.44;5065705;28;20033;-80
2022/12/12 06:34:16;;;;;;;0.20;0.20;;;;;;;-0.80;70.64;101305.69;5060410;28;20080;-81
2022/12/12 06:36:42;;;;;;;0.10;0.10;;;;;;;-0.80;70.58;101305.69;5072595;28;20017;-81
2022/12/12 06:39:08;;;;;;;0.30;0.30;;;;;;;-0.82;70.02;101316.03;5063910;28;20022;-83
2022/12/12 06:41:35;;;;;;;0.28;0.28;;;;;;;-0.82;70.14;101307.38;5066993;28;20017;-81
2022/12/12 06:44:04;;;;;;;0.20;0.20;;;;;;;-0.82;69.88;101312.56;5075843;28;20163;-81
2022/12/12 06:46:30;;;;;;;0.20;0.20;;;;;;;-0.83;70.59;101316.00;5062516;28;20112;-80
2022/12/12 06:48:56;;;;;;;0.10;0.10;;;;;;;-0.84;70.51;101317.69;5050646;28;20028;-80
2022/12/12 06:51:26;;;;;;;0.30;0.30;;;;;;;-0.84;70.25;101322.03;5060613;28;20435;-81
2022/12/12 06:53:54;;;;;;;0.68;0.68;;;;;;;-0.87;70.56;101319.34;5063800;28;20044;-80
2022/12/12 06:56:22;;;;;;;0.20;0.20;;;;;;;-0.89;70.51;101327.06;5050858;28;20029;-79
2022/12/12 06:58:49;;;;;;;0.20;0.20;;;;;;;-0.90;70.50;101324.41;5057882;28;20089;-79
2022/12/12 07:01:18;;;;;;;0.20;0.20;;;;;;;-0.90;70.11;101324.41;5057557;28;20064;-79
2022/12/12 07:03:45;;;;;;;1.88;1.77;;;;;;;-0.93;70.45;101333.00;5053602;28;20033;-80
2022/12/12 07:06:11;;;;;;;0.20;0.20;;;;;;;-0.95;69.96;101329.47;5060056;28;20025;-81
2022/12/12 07:08:37;;;;;;;0.20;0.20;;;;;;;-0.96;70.02;101338.09;5057447;28;20065;-79
2022/12/12 07:11:09;;;;;;;0.10;0.10;;;;;;;-0.97;70.03;101336.34;5049174;28;20044;-80
2022/12/12 07:13:35;;;;;;;0.30;0.30;;;;;;;-1.01;69.86;101343.16;5054682;28;20029;-81
2022/12/12 07:16:02;;;;;;;0.30;0.30;;;;;;;-1.06;69.81;101339.50;5057002;28;20294;-79
2022/12/12 07:18:28;;;;;;;0.17;0.17;;;;;;;-1.09;70.13;101348.91;5055310;28;20025;-80
2022/12/12 07:20:54;;;;;;;1.00;1.00;;;;;;;-1.13;70.20;101355.72;5050366;28;20060;-80
2022/12/12 07:23:20;;;;;;;0.10;0.10;;;;;;;-1.19;70.13;101358.97;5049229;28;20037;-80
2022/12/12 07:25:47;;;;;;;0.20;0.20;;;;;;;-1.22;69.50;101353.66;5059123;28;20041;-80
2022/12/12 07:28:14;;;;;;;0.63;0.63;;;;;;;-1.25;69.58;101357.88;5066969;28;20009;-78
2022/12/12 07:30:50;;;;;;;0.95;0.80;;;;;;;-1.25;69.26;101357.88;5063821;28;20044;-79
2022/12/12 07:33:17;;;;;;;0.30;0.30;;;;;;;-1.28;69.47;101360.34;5057566;28;20017;-79
2022/12/12 07:35:44;;;;;;;0.22;0.22;;;;;;;-1.31;68.99;101367.22;5053176;28;20028;-81
2022/12/12 07:38:11;;;;;;;0.20;0.20;;;;;;;-1.31;69.33;101363.72;5048957;28;20373;-80
2022/12/12 07:40:37;;;;;;;0.65;0.65;;;;;;;-1.34;69.52;101366.22;5052896;28;20017;-80
2022/12/12 07:43:03;;;;;;;0.30;0.30;;;;;;;-1.35;69.10;101362.72;5053478;28;20056;-81
2022/12/12 07:45:29;;;;;;;0.17;0.17;;;;;;;-1.37;69.39;101368.69;5055342;28;20403;-82
2022/12/12 07:47:56;;;;;;;0.20;0.20;;;;;;;-1.38;68.79;101375.59;5053085;28;20017;-82
2022/12/12 07:50:22;;;;;;;0.20;0.20;;;;;;;-1.41;68.84;101372.00;5055564;28;20100;-83
2022/12/12 07:52:48;;;;;;;0.55;0.55;;;;;;;-1.43;69.36;101371.06;5048682;28;20155;-82
2022/12/12 07:55:15;;;;;;;2.67;1.48;;;;;;;-1.44;68.96;101377.09;5052243;28;20017;-83
2022/12/12 07:57:41;;;;;;;0.20;0.20;;;;;;;-1.46;69.18;101379.63;5048002;28;20064;-82
2022/12/12 08:00:12;;;;;;;0.20;0.20;;;;;;;-1.45;69.34;101389.19;5050367;28;20021;-83
2022/12/12 08:02:38;;;;;;;0.60;0.60;;;;;;;-1.47;69.24;101383.03;5053233;28;20033;-83
2022/12/12 08:05:04;;;;;;;0.22;0.22;;;;;;;-1.46;69.65;101390.03;5058128;28;20017;-82
2022/12/12 08:07:30;;;;;;;0.20;0.20;;;;;;;-1.45;69.15;101389.19;5054427;28;20587;-83
2022/12/12 08:09:56;;;;;;;0.20;0.20;;;;;;;-1.44;68.69;101387.50;5057308;28;20025;-83
2022/12/12 08:12:23;;;;;;;0.30;0.30;;;;;;;-1.40;69.13;101395.44;5054743;28;20013;-81
2022/12/12 08:14:49;;;;;;;0.10;0.10;;;;;;;-1.39;69.27;101394.63;5058254;28;20029;-80
2022/12/12 08:17:15;;;;;;;0.20;0.20;;;;;;;-1.36;69.25;101402.56;5062951;28;20039;-81
2022/12/12 08:19:41;;;;;;;0.35;0.35;;;;;;;-1.32;69.46;101412.25;5060948;28;20020;-81
2022/12/12 08:22:08;;;;;;;0.20;0.20;;;;;;;-1.29;69.56;101401.06;5059768;28;20025;-81
2022/12/12 08:24:34;;;;;;;0.20;0.20;;;;;;;-1.26;69.75;101402.88;5053984;28;20047;-81
2022/12/12 08:27:00;;;;;;;0.20;0.20;;;;;;;-1.21;69.68;101406.53;5055202;28;20605;-81
2022/12/12 08:29:30;;;;;;;0.20;0.20;;;;;;;-1.19;69.95;101410.09;5058434;28;20569;-81
2022/12/12 08:31:57;;;;;;;0.20;0.20;;;;;;;-1.13;69.59;101410.31;5053311;28;20018;-81
2022/12/12 08:34:23;;;;;;;0.20;0.20;;;;;;;-1.09;69.33;101416.53;5050155;28;20039;-81
2022/12/12 08:36:49;;;;;;;0.95;0.95;;;;;;;-1.06;69.65;101414.94;5058879;28;20029;-82
2022/12/12 08:39:16;;;;;;;0.20;0.20;;;;;;;-1.00;69.74;101422.06;5062542;28;20029;-82
2022/12/12 08:41:46;;;;;;;0.45;0.45;;;;;;;-0.97;69.87;101416.97;5051379;28;20037;-82
2022/12/12 08:44:13;;;;;;;0.52;0.52;;;;;;;-0.94;70.02;101406.66;5058870;28;20021;-81
2022/12/12 08:46:40;;;;;;;0.20;0.20;;;;;;;-0.91;69.96;101409.41;5063865;28;20035;-80
2022/12/12 08:49:07;;;;;;;0.20;0.20;;;;;;;-0.89;70.47;101406.84;5063585;28;20038;-79
2022/12/12 08:51:36;;;;;;;1.75;1.65;;;;;;;-0.87;69.97;101402.59;5061053;28;20092;-80
2022/12/12 08:54:02;;;;;;;3.30;2.28;;;;;;;-0.86;69.92;101400.03;5060269;28;20025;-80
2022/12/12 08:56:28;;;;;;;0.20;0.20;;;;;;;-0.83;70.58;101404.47;5060548;28;20568;-82
2022/12/12 08:58:55;;;;;;;0.10;0.10;;;;;;;-0.79;70.09;101400.25;5047349;28;20043;-81
2022/12/12 09:01:23;;;;;;;0.20;0.20;;;;;;;-0.77;70.48;101398.56;5047205;28;20029;-83
2022/12/12 09:03:51;;;;;;;0.20;0.20;;;;;;;-0.72;70.75;101405.72;5045297;28;20040;-83
2022/12/12 09:06:18;;;;;;;0.10;0.10;;;;;;;-0.68;70.18;101406.72;5046473;28;20033;-83
2022/12/12 09:08:44;;;;;;;0.20;0.20;;;;;;;-0.64;70.60;101415.53;5053370;28;20045;-81
2022/12/12 09:11:11;;;;;;;0.30;0.30;;;;;;;-0.61;70.53;101416.53;5055223;28;20483;-81
2022/12/12 09:13:38;;;;;;;0.10;0.10;;;;;;;-0.59;70.28;101413.97;5052650;28;20116;-81
2022/12/12 09:16:06;;;;;;;0.20;0.20;;;;;;;-0.54;70.76;101407.19;5045875;28;20087;-82
2022/12/12 09:18:33;;;;;;;0.20;0.20;;;;;;;-0.50;70.71;101399.56;5051215;28;20400;-80
2022/12/12 09:20:59;;;;;;;0.20;0.20;;;;;;;-0.44;70.94;101414.47;5047669;28;20030;-82
2022/12/12 09:23:27;;;;;;;0.20;0.20;;;;;;;-0.40;71.25;101405.97;5048675;28;20045;-81
2022/12/12 09:25:54;;;;;;;0.20;0.20;;;;;;;-0.36;71.18;101413.03;5049082;28;20056;-79
2022/12/12 09:28:23;;;;;;;0.20;0.20;;;;;;;-0.29;71.13;101408.03;5033389;28;20029;-81
2022/12/12 09:30:50;;;;;;;0.20;0.20;;;;;;;-0.25;70.77;101408.19;5036431;28;20025;-81
2022/12/12 09:33:18;;;;;;;0.10;0.10;;;;;;;-0.20;70.77;101403.13;5039001;28;20040;-80
2022/12/12 09:35:45;;;;;;;0.20;0.20;;;;;;;-0.14;70.74;101405.94;5047988;28;20033;-81
2022/12/12 09:38:11;;;;;;;1.73;0.77;;;;;;;-0.10;71.18;101407.81;5042851;28;20037;-82
2022/12/12 09:40:51;;;;;;;0.20;0.20;;;;;;;-0.02;71.24;101406.31;5047547;28;20037;-81
2022/12/12 09:43:23;;;;;;;0.10;0.10;;;;;;;0.02;71.15;101402.09;5058429;28;20089;-80
2022/12/12 09:45:50;;;;;;;3.08;2.85;;;;;;;0.07;71.11;101412.69;5061779;28;20017;-80
2022/12/12 09:48:29;;;;;;;4.18;1.38;;;;;;;0.17;70.55;101406.91;5055687;28;20037;-80
2022/12/12 09:50:55;;;;;;;0.20;0.20;;;;;;;0.14;70.89;101404.22;5062463;28;20029;-81
2022/12/12 09:53:24;;;;;;;0.10;0.10;;;;;;;0.14;70.42;101404.22;5059402;28;20092;-79
2022/12/12 09:58:53;;;;;;;0.82;0.77;;;;;;;0.27;70.46;101403.75;5107596;27;20149;-79
2022/12/12 10:01:45;;;;;;;0.25;0.25;;;;;;;0.35;71.13;101400.50;5110763;28;20038;-79
2022/12/12 10:04:44;;;;;;;0.20;0.20;;;;;;;0.43;70.35;101399.91;5105212;28;20092;-81
2022/12/12 10:07:36;;;;;;;0.20;0.20;;;;;;;0.41;70.66;101400.69;5082935;28;20495;-80
2022/12/12 10:13:21;;;;;;;0.20;0.20;;;;;;;0.57;70.39;101399.44;5103644;27;1221365;-79
2022/12/12 10:15:51;;;;;;;0.20;0.20;;;;;;;0.61;70.17;101403.91;5086462;28;20093;-79
2022/12/12 10:18:25;;;;;;;0.20;0.20;;;;;;;0.63;70.60;101395.28;5087055;28;20027;-79
2022/12/12 10:20:55;;;;;;;3.00;1.88;;;;;;;0.70;70.56;101405.91;5087218;28;20137;-80
2022/12/12 10:23:37;;;;;;;0.20;0.20;;;;;;;0.79;70.29;101400.97;5085608;28;20231;-79
2022/12/12 10:26:09;;;;;;;0.43;0.43;;;;;;;0.83;70.08;101392.38;5081686;28;20625;-81
2022/12/12 10:28:36;;;;;;;0.25;0.25;;;;;;;0.89;70.32;101391.69;5088176;28;20371;-79
2022/12/12 10:31:29;;;;;;;0.88;0.88;;;;;;;1.00;70.06;101386.75;5096926;28;20088;-80
2022/12/12 10:34:25;;;;;;;0.10;0.10;;;;;;;1.02;69.62;101378.13;5090114;28;20032;-81
2022/12/12 10:47:48;;;;;;;1.50;1.40;;;;;;;1.24;69.38;101378.72;5109318;27;1255384;-79
2022/12/12 10:50:37;;;;;;;0.20;0.20;;;;;;;1.37;69.60;101373.00;5141715;27;20039;-79
2022/12/12 10:53:06;;;;;;;0.20;0.20;;;;;;;1.38;69.51;101376.47;5143295;27;20031;-80
2022/12/12 10:55:46;;;;;;;0.20;0.20;;;;;;;1.46;69.28;101380.19;5123863;27;20024;-79
2022/12/12 10:58:15;;;;;;;0.10;0.10;;;;;;;1.47;68.98;101379.34;5119181;27;20031;-81
2022/12/12 11:00:47;;;;;;;0.85;0.85;;;;;;;1.55;69.06;101377.78;5128389;27;20047;-81
2022/12/12 11:05:57;;;;;;;0.15;0.15;;;;;;;1.70;69.01;101377.31;5085891;28;20393;-79
2022/12/12 11:11:22;;;;;;;0.10;0.10;;;;;;;1.87;68.28;101369.00;5112365;27;20125;-82
2022/12/12 11:13:53;;;;;;;0.20;0.20;;;;;;;1.86;68.36;101365.50;5082323;28;20067;-82
2022/12/12 11:16:24;;;;;;;0.10;0.10;;;;;;;1.87;67.73;101362.03;5108970;28;20024;-81
2022/12/12 11:19:03;;;;;;;0.13;0.13;;;;;;;1.91;67.35;101368.25;5107800;28;20032;-82
2022/12/12 11:21:33;;;;;;;0.10;0.10;;;;;;;1.91;67.56;101363.88;5113755;28;20023;-82
2022/12/12 11:24:03;;;;;;;0.20;0.20;;;;;;;1.98;67.58;101364.03;5111998;28;20071;-82
2022/12/12 11:26:37;;;;;;;2.25;2.08;;;;;;;2.01;67.59;101364.13;5094869;28;20020;-81
2022/12/12 11:29:03;;;;;;;0.43;0.43;;;;;;;2.07;67.95;101359.91;5092222;28;20062;-83
2022/12/12 11:31:33;;;;;;;0.20;0.20;;;;;;;2.11;67.78;101366.09;5088469;28;20082;-82
2022/12/12 11:34:03;;;;;;;0.80;0.80;;;;;;;2.20;67.81;101362.81;5090629;28;20041;-82
2022/12/12 11:36:39;;;;;;;1.27;1.00;;;;;;;2.31;67.93;101363.91;5106672;28;20024;-82
2022/12/12 11:39:20;;;;;;;0.30;0.30;;;;;;;2.37;67.60;101357.97;5107375;28;20036;-82
2022/12/12 11:42:26;;;;;;;0.47;0.47;;;;;;;2.44;67.30;101354.59;5103424;28;20036;-82
2022/12/12 11:47:41;;;;;;;0.60;0.60;;;;;;;2.39;66.69;101356.25;5122662;27;20390;-81
2022/12/12 11:50:28;;;;;;;0.20;0.20;;;;;;;2.44;66.68;101354.59;5112425;28;20036;-81
2022/12/12 11:52:57;;;;;;;0.10;0.10;;;;;;;2.45;67.32;101356.38;5085757;28;20025;-81
2022/12/12 11:55:41;;;;;;;1.45;1.00;;;;;;;2.51;66.52;101353.88;5076946;28;20024;-81
2022/12/12 11:58:16;;;;;;;0.77;0.77;;;;;;;2.58;66.58;101350.56;5080215;28;20034;-80
2022/12/12 12:01:05;;;;;;;0.13;0.13;;;;;;;2.69;67.12;101339.41;5069441;28;20024;-81
2022/12/12 12:09:36;;;;;;;0.10;0.10;;;;;;;2.82;66.83;101341.44;5104136;27;1203245;-82
2022/12/12 12:12:36;;;;;;;0.63;0.63;;;;;;;2.84;65.04;101341.47;5113970;28;20294;-82
2022/12/12 12:18:03;;;;;;;0.20;0.20;;;;;;;2.81;65.82;101347.53;5097335;27;1208525;-83
2022/12/12 12:21:00;;;;;;;0.20;0.20;;;;;;;2.81;65.13;101347.53;5127481;27;20055;-83
2022/12/12 12:24:02;;;;;;;0.10;0.10;;;;;;;2.76;64.29;101343.94;5116958;27;20029;-83
2022/12/12 12:32:30;;;;;;;0.20;0.20;;;;;;;2.88;64.41;101331.09;5055432;28;20372;-83
2022/12/12 12:35:14;;;;;;;0.15;0.15;;;;;;;2.94;64.75;101321.59;5050930;28;20041;-82
2022/12/12 12:38:08;;;;;;;0.10;0.10;;;;;;;2.97;64.67;101326.91;5059608;28;20079;-79
2022/12/12 12:41:06;;;;;;;1.75;1.02;;;;;;;2.97;64.66;101329.53;5072762;28;20106;-82
2022/12/12 12:44:12;;;;;;;0.50;0.50;;;;;;;2.91;63.74;101336.38;5065104;28;20033;-82
2022/12/12 12:50:31;;;;;;;0.73;0.73;;;;;;;2.99;64.57;101322.56;5072955;27;1192096;-81
2022/12/12 12:55:43;;;;;;;0.43;0.43;;;;;;;3.05;64.74;101317.44;5110292;27;20391;-83
2022/12/12 12:58:21;;;;;;;2.33;1.55;;;;;;;3.07;64.42;101321.84;5092390;28;20032;-82
2022/12/12 13:00:57;;;;;;;3.13;2.88;;;;;;;3.10;64.10;101318.41;5093559;28;20024;-82
2022/12/12 13:03:30;;;;;;;0.17;0.17;;;;;;;3.13;63.84;101322.81;5094120;28;20044;-83
2022/12/12 13:06:02;;;;;;;0.52;0.52;;;;;;;3.21;64.88;101321.22;5096662;28;20024;-82
2022/12/12 13:11:32;;;;;;;0.38;0.38;;;;;;;3.34;64.70;101323.22;5093957;27;1347854;-83
2022/12/12 13:14:12;;;;;;;1.15;1.05;;;;;;;3.33;63.49;101323.19;5110920;28;20104;-83
2022/12/12 13:16:40;;;;;;;0.17;0.17;;;;;;;3.36;63.85;101325.84;5130092;28;20028;-82
2022/12/12 13:19:15;;;;;;;0.17;0.17;;;;;;;3.43;64.18;101327.72;5123130;28;20028;-82
2022/12/12 13:21:54;;;;;;;0.20;0.20;;;;;;;3.49;64.07;101330.44;5124790;28;20062;-83
2022/12/12 13:25:00;;;;;;;;;;;;;;;;;;;;;
2022/12/12 13:27:54;;;;;;;0.10;0.10;;;;;;;3.54;63.66;101331.41;5118437;28;20036;-83
2022/12/12 13:30:29;;;;;;;0.10;0.10;;;;;;;3.55;63.92;101334.91;5129332;28;20042;-83
2022/12/12 13:35:54;;;;;;;0.10;0.10;;;;;;;3.58;63.61;101328.81;5123966;27;20368;-83
2022/12/12 13:41:03;;;;;;;3.35;1.25;;;;;;;3.57;63.39;101325.34;5101097;27;20129;-82
2022/12/12 13:43:43;;;;;;;0.10;0.10;;;;;;;3.63;63.75;101328.06;5104189;28;20028;-82